createdAt,value
2018-04-15T00:00:13.182Z,48.95
2018-04-15T00:00:47.064Z,54.13
2018-04-15T00:01:20.933Z,54.83
2018-04-15T00:01:54.812Z,57.72
2018-04-15T00:02:28.669Z,62.45
2018-04-15T00:03:02.552Z,53.95
2018-04-15T00:03:36.403Z,54.95
2018-04-15T00:04:10.303Z,54.55
2018-04-15T00:04:44.172Z,52.95
2018-04-15T00:05:18.061Z,52.00
2018-04-15T00:05:51.918Z,54.38
2018-04-15T00:06:26.051Z,54.90
2018-04-15T00:06:59.994Z,53.40
2018-04-15T00:07:33.883Z,57.75
2018-04-15T00:08:07.793Z,49.22
2018-04-15T00:08:41.663Z,56.75
2018-04-15T00:09:15.600Z,47.47
2018-04-15T00:09:49.456Z,60.40
2018-04-15T00:10:23.324Z,73.50
2018-04-15T00:10:57.201Z,94.72
2018-04-15T00:11:31.071Z,76.50
2018-04-15T00:12:05.867Z,73.95
2018-04-15T00:12:39.744Z,58.58
2018-04-15T00:13:13.636Z,57.22
2018-04-15T00:13:47.483Z,51.47
2018-04-15T00:14:21.363Z,62.90
2018-04-15T00:14:55.383Z,77.87
2018-04-15T00:15:29.236Z,66.00
2018-04-15T00:16:03.104Z,102.45
2018-04-15T00:16:36.967Z,109.00
2018-04-15T00:17:10.825Z,121.62
2018-04-15T00:17:44.708Z,129.02
2018-04-15T00:18:18.670Z,104.40
2018-04-15T00:18:52.544Z,80.85
2018-04-15T00:19:26.507Z,109.07
2018-04-15T00:20:02.470Z,77.60
2018-04-15T00:20:36.356Z,55.80
2018-04-15T00:21:10.232Z,58.28
2018-04-15T00:21:44.425Z,59.28
2018-04-15T00:22:18.303Z,52.62
2018-04-15T00:22:53.200Z,53.20
2018-04-15T00:23:27.060Z,44.83
2018-04-15T00:24:00.921Z,43.97
2018-04-15T00:24:34.794Z,47.28
2018-04-15T00:25:09.257Z,50.25
2018-04-15T00:25:43.903Z,52.35
2018-04-15T00:26:17.773Z,58.15
2018-04-15T00:26:51.659Z,52.62
2018-04-15T00:27:25.554Z,50.22
2018-04-15T00:27:59.445Z,48.83
2018-04-15T00:28:33.370Z,49.25
2018-04-15T00:29:07.288Z,48.33
2018-04-15T00:29:41.172Z,54.63
2018-04-15T00:30:15.049Z,47.42
2018-04-15T00:30:48.930Z,62.95
2018-04-15T00:31:22.790Z,53.75
2018-04-15T00:31:56.666Z,47.90
2018-04-15T00:32:30.531Z,42.90
2018-04-15T00:33:04.493Z,46.47
2018-04-15T00:33:38.404Z,46.40
2018-04-15T00:34:12.289Z,47.72
2018-04-15T00:34:46.187Z,47.53
2018-04-15T00:35:20.052Z,52.90
2018-04-15T00:35:53.923Z,47.08
2018-04-15T00:36:27.936Z,78.78
2018-04-15T00:37:01.846Z,54.97
2018-04-15T00:37:35.705Z,49.42
2018-04-15T00:38:09.572Z,48.28
2018-04-15T00:38:43.447Z,78.47
2018-04-15T00:39:17.304Z,58.95
2018-04-15T00:39:51.201Z,43.17
2018-04-15T00:40:25.066Z,47.55
2018-04-15T00:40:58.919Z,67.30
2018-04-15T00:41:32.783Z,50.70
2018-04-15T00:42:06.655Z,45.78
2018-04-15T00:42:40.545Z,46.70
2018-04-15T00:43:14.414Z,46.72
2018-04-15T00:43:48.289Z,45.95
2018-04-15T00:44:22.148Z,41.25
2018-04-15T00:44:56.063Z,45.40
2018-04-15T00:45:29.934Z,44.45
2018-04-15T00:46:03.794Z,41.15
2018-04-15T00:46:37.663Z,42.60
2018-04-15T00:47:11.562Z,49.92
2018-04-15T00:47:45.421Z,54.35
2018-04-15T00:48:19.322Z,44.83
2018-04-15T00:48:53.207Z,52.80
2018-04-15T00:49:27.076Z,52.47
2018-04-15T00:50:00.993Z,85.25
2018-04-15T00:50:34.848Z,49.25
2018-04-15T00:51:08.717Z,52.35
2018-04-15T00:51:42.592Z,97.78
2018-04-15T00:52:16.455Z,59.20
2018-04-15T00:52:50.333Z,57.35
2018-04-15T00:53:24.197Z,51.70
2018-04-15T00:54:03.948Z,45.40
2018-04-15T00:54:37.816Z,48.33
2018-04-15T00:55:11.701Z,48.35
2018-04-15T00:55:45.567Z,48.28
2018-04-15T00:56:20.647Z,46.72
2018-04-15T00:56:54.512Z,43.17
2018-04-15T00:57:28.384Z,46.58
2018-04-15T00:58:02.256Z,47.17
2018-04-15T00:58:36.113Z,63.33
2018-04-15T00:59:09.980Z,78.90
2018-04-15T00:59:43.841Z,95.50
2018-04-15T01:00:17.733Z,56.47
2018-04-15T01:00:51.594Z,59.28
2018-04-15T01:01:25.510Z,70.97
2018-04-15T01:01:59.406Z,66.22
2018-04-15T01:02:33.283Z,59.22
2018-04-15T01:03:07.155Z,50.88
2018-04-15T01:03:41.022Z,45.17
2018-04-15T01:04:14.944Z,43.45
2018-04-15T01:04:48.800Z,41.45
2018-04-15T01:05:22.671Z,67.80
2018-04-15T01:05:56.518Z,90.22
2018-04-15T01:06:30.459Z,58.87
2018-04-15T01:07:04.332Z,55.00
2018-04-15T01:07:38.316Z,54.80
2018-04-15T01:08:12.179Z,59.50
2018-04-15T01:08:46.053Z,45.50
2018-04-15T01:09:19.905Z,48.47
2018-04-15T01:09:53.808Z,60.90
2018-04-15T01:10:27.679Z,52.78
2018-04-15T01:11:01.543Z,61.28
2018-04-15T01:11:35.402Z,53.50
2018-04-15T01:12:09.281Z,47.47
2018-04-15T01:12:43.176Z,62.92
2018-04-15T01:13:17.030Z,75.62
2018-04-15T01:13:50.896Z,76.20
2018-04-15T01:14:24.763Z,93.07
2018-04-15T01:14:58.655Z,68.70
2018-04-15T01:15:32.545Z,83.57
2018-04-15T01:16:06.409Z,89.50
2018-04-15T01:16:40.433Z,63.42
2018-04-15T01:17:14.295Z,60.35
2018-04-15T01:17:48.139Z,42.15
2018-04-15T01:18:21.999Z,45.35
2018-04-15T01:18:55.877Z,52.10
2018-04-15T01:19:29.763Z,49.85
2018-04-15T01:20:03.625Z,47.95
2018-04-15T01:20:37.585Z,49.10
2018-04-15T01:21:11.453Z,56.80
2018-04-15T01:21:45.341Z,53.50
2018-04-15T01:22:19.244Z,54.95
2018-04-15T01:22:53.165Z,55.85
2018-04-15T01:23:27.012Z,51.17
2018-04-15T01:24:00.998Z,78.72
2018-04-15T01:24:34.873Z,72.50
2018-04-15T01:25:08.773Z,84.70
2018-04-15T01:25:42.661Z,63.47
2018-04-15T01:26:16.551Z,55.42
2018-04-15T01:26:52.731Z,58.80
2018-04-15T01:27:26.623Z,53.00
2018-04-15T01:28:00.524Z,56.85
2018-04-15T01:28:34.399Z,53.63
2018-04-15T01:29:08.260Z,68.65
2018-04-15T01:29:42.140Z,48.95
2018-04-15T01:30:16.083Z,40.55
2018-04-15T01:30:49.985Z,43.00
2018-04-15T01:31:23.856Z,39.50
2018-04-15T01:31:57.707Z,40.92
2018-04-15T01:32:31.578Z,41.15
2018-04-15T01:33:05.467Z,52.17
2018-04-15T01:33:39.344Z,45.95
2018-04-15T01:34:13.217Z,50.88
2018-04-15T01:34:47.079Z,51.22
2018-04-15T01:35:21.323Z,46.78
2018-04-15T01:35:55.220Z,39.80
2018-04-15T01:36:29.095Z,84.03
2018-04-15T01:37:02.968Z,72.72
2018-04-15T01:37:36.856Z,121.15
2018-04-15T01:38:10.738Z,109.70
2018-04-15T01:38:44.615Z,112.47
2018-04-15T01:39:18.490Z,63.90
2018-04-15T01:39:52.367Z,100.93
2018-04-15T01:40:26.232Z,112.47
2018-04-15T01:41:02.443Z,60.38
2018-04-15T01:41:36.316Z,117.30
2018-04-15T01:42:10.174Z,68.97
2018-04-15T01:42:44.054Z,53.58
2018-04-15T01:43:18.085Z,50.33
2018-04-15T01:43:51.942Z,57.38
2018-04-15T01:44:25.802Z,69.60
2018-04-15T01:44:59.675Z,51.25
2018-04-15T01:45:33.541Z,49.53
2018-04-15T01:46:07.411Z,46.15
2018-04-15T01:46:41.284Z,54.65
2018-04-15T01:47:15.206Z,75.87
2018-04-15T01:47:49.064Z,56.50
2018-04-15T01:48:22.939Z,62.95
2018-04-15T01:48:56.804Z,49.13
2018-04-15T01:49:30.690Z,43.80
2018-04-15T01:50:04.567Z,58.83
2018-04-15T01:50:38.445Z,50.22
2018-04-15T01:51:12.359Z,42.50
2018-04-15T01:51:46.273Z,44.72
2018-04-15T01:52:20.185Z,41.45
2018-04-15T01:52:54.057Z,43.70
2018-04-15T01:53:27.924Z,46.10
2018-04-15T01:54:01.872Z,48.85
2018-04-15T01:54:35.758Z,45.72
2018-04-15T01:55:09.658Z,45.97
2018-04-15T01:55:43.537Z,42.70
2018-04-15T01:56:17.411Z,44.00
2018-04-15T01:56:51.276Z,53.00
2018-04-15T01:57:25.135Z,48.70
2018-04-15T01:57:58.987Z,39.20
2018-04-15T01:58:32.867Z,37.80
2018-04-15T01:59:06.735Z,38.35
2018-04-15T01:59:40.608Z,49.00
2018-04-15T02:00:14.450Z,45.30
2018-04-15T02:00:48.419Z,42.97
2018-04-15T02:01:22.317Z,46.40
2018-04-15T02:01:56.169Z,38.72
2018-04-15T02:02:30.034Z,39.10
2018-04-15T02:03:03.889Z,38.13
2018-04-15T02:03:37.800Z,33.97
2018-04-15T02:04:11.659Z,41.80
2018-04-15T02:04:45.520Z,39.70
2018-04-15T02:05:19.379Z,36.72
2018-04-15T02:05:53.236Z,36.50
2018-04-15T02:06:27.117Z,36.80
2018-04-15T02:07:00.989Z,39.20
2018-04-15T02:07:34.854Z,39.85
2018-04-15T02:08:08.717Z,41.78
2018-04-15T02:08:42.588Z,38.83
2018-04-15T02:09:16.440Z,37.28
2018-04-15T02:09:50.364Z,42.83
2018-04-15T02:10:24.231Z,35.58
2018-04-15T02:10:58.088Z,39.45
2018-04-15T02:11:32.013Z,38.33
2018-04-15T02:12:05.894Z,40.63
2018-04-15T02:12:39.769Z,36.80
2018-04-15T02:13:13.650Z,36.60
2018-04-15T02:13:47.521Z,41.03
2018-04-15T02:14:21.396Z,40.83
2018-04-15T02:14:55.255Z,33.58
2018-04-15T02:15:29.126Z,39.95
2018-04-15T02:16:02.991Z,38.72
2018-04-15T02:16:36.874Z,35.58
2018-04-15T02:17:10.735Z,38.17
2018-04-15T02:17:44.620Z,36.42
2018-04-15T02:18:18.497Z,35.70
2018-04-15T02:18:52.564Z,32.08
2018-04-15T02:19:26.426Z,39.40
2018-04-15T02:20:00.288Z,39.30
2018-04-15T02:20:34.247Z,42.45
2018-04-15T02:21:08.106Z,40.03
2018-04-15T02:21:42.005Z,36.90
2018-04-15T02:22:15.879Z,35.88
2018-04-15T02:22:49.738Z,41.65
2018-04-15T02:23:23.595Z,37.50
2018-04-15T02:23:57.443Z,35.25
2018-04-15T02:24:31.331Z,38.30
2018-04-15T02:25:05.185Z,37.25
2018-04-15T02:25:39.055Z,37.35
2018-04-15T02:26:12.925Z,32.97
2018-04-15T02:26:46.813Z,38.70
2018-04-15T02:27:20.667Z,40.70
2018-04-15T02:27:54.575Z,33.05
2018-04-15T02:28:28.446Z,35.45
2018-04-15T02:29:02.325Z,34.67
2018-04-15T02:29:36.178Z,37.22
2018-04-15T02:30:10.036Z,36.40
2018-04-15T02:30:43.895Z,36.90
2018-04-15T02:31:17.777Z,42.35
2018-04-15T02:31:51.656Z,43.15
2018-04-15T02:32:25.515Z,39.50
2018-04-15T02:32:59.400Z,37.35
2018-04-15T02:33:33.295Z,40.88
2018-04-15T02:34:07.161Z,38.28
2018-04-15T02:34:41.033Z,38.90
2018-04-15T02:35:14.930Z,37.42
2018-04-15T02:35:48.782Z,41.37
2018-04-15T02:36:22.659Z,35.00
2018-04-15T02:36:56.534Z,37.28
2018-04-15T02:37:30.497Z,38.10
2018-04-15T02:38:04.361Z,36.88
2018-04-15T02:38:38.367Z,38.95
2018-04-15T02:39:12.230Z,38.28
2018-04-15T02:39:46.105Z,35.63
2018-04-15T02:40:19.972Z,35.67
2018-04-15T02:40:53.839Z,38.17
2018-04-15T02:41:27.718Z,40.65
2018-04-15T02:42:01.599Z,40.00
2018-04-15T02:42:35.474Z,38.05
2018-04-15T02:43:09.339Z,42.20
2018-04-15T02:43:43.230Z,42.50
2018-04-15T02:44:17.095Z,42.40
2018-04-15T02:44:51.015Z,40.17
2018-04-15T02:45:24.891Z,38.72
2018-04-15T02:45:58.765Z,40.58
2018-04-15T02:46:32.668Z,42.13
2018-04-15T02:47:06.596Z,41.58
2018-04-15T02:47:40.473Z,44.92
2018-04-15T02:48:14.344Z,42.17
2018-04-15T02:48:48.199Z,40.42
2018-04-15T02:49:22.064Z,39.90
2018-04-15T02:49:55.932Z,46.85
2018-04-15T02:50:29.790Z,47.65
2018-04-15T02:51:03.647Z,38.75
2018-04-15T02:51:37.744Z,40.45
2018-04-15T02:52:11.636Z,39.95
2018-04-15T02:52:45.508Z,40.97
2018-04-15T02:53:19.371Z,43.25
2018-04-15T02:53:53.243Z,37.95
2018-04-15T02:54:27.111Z,41.33
2018-04-15T02:55:01.146Z,39.60
2018-04-15T02:55:35.013Z,40.12
2018-04-15T02:56:08.880Z,41.20
2018-04-15T02:56:42.737Z,48.00
2018-04-15T02:57:16.611Z,43.17
2018-04-15T02:57:50.475Z,44.47
2018-04-15T02:58:24.329Z,52.08
2018-04-15T02:58:58.187Z,45.30
2018-04-15T02:59:32.058Z,46.60
2018-04-15T03:00:05.924Z,43.60
2018-04-15T03:00:39.794Z,49.10
2018-04-15T03:01:13.787Z,46.17
2018-04-15T03:01:47.651Z,49.65
2018-04-15T03:02:21.525Z,43.72
2018-04-15T03:02:55.472Z,45.33
2018-04-15T03:03:29.334Z,38.75
2018-04-15T03:04:03.225Z,50.08
2018-04-15T03:04:37.089Z,42.08
2018-04-15T03:05:10.962Z,51.67
2018-04-15T03:05:44.828Z,42.85
2018-04-15T03:06:18.687Z,47.28
2018-04-15T03:06:52.592Z,43.63
2018-04-15T03:07:26.527Z,41.40
2018-04-15T03:08:00.392Z,46.50
2018-04-15T03:08:34.264Z,49.13
2018-04-15T03:09:08.120Z,42.20
2018-04-15T03:09:41.995Z,43.00
2018-04-15T03:10:15.872Z,41.50
2018-04-15T03:10:49.728Z,45.63
2018-04-15T03:11:23.576Z,49.88
2018-04-15T03:11:57.443Z,44.50
2018-04-15T03:12:31.324Z,46.15
2018-04-15T03:13:05.175Z,44.28
2018-04-15T03:13:39.029Z,45.47
2018-04-15T03:14:12.904Z,47.00
2018-04-15T03:14:46.771Z,39.58
2018-04-15T03:15:20.632Z,48.28
2018-04-15T03:15:54.527Z,47.22
2018-04-15T03:16:28.394Z,47.15
2018-04-15T03:17:02.281Z,46.22
2018-04-15T03:17:36.162Z,47.17
2018-04-15T03:18:10.015Z,46.72
2018-04-15T03:18:43.894Z,42.88
2018-04-15T03:19:17.755Z,48.70
2018-04-15T03:19:51.717Z,45.80
2018-04-15T03:20:25.561Z,46.20
2018-04-15T03:20:59.427Z,51.47
2018-04-15T03:21:33.295Z,44.63
2018-04-15T03:22:07.172Z,46.40
2018-04-15T03:22:41.043Z,47.17
2018-04-15T03:23:14.916Z,47.03
2018-04-15T03:23:48.792Z,49.65
2018-04-15T03:24:22.651Z,43.45
2018-04-15T03:24:56.518Z,44.28
2018-04-15T03:25:30.393Z,48.83
2018-04-15T03:26:04.254Z,47.28
2018-04-15T03:26:38.143Z,49.28
2018-04-15T03:27:12.000Z,50.53
2018-04-15T03:27:45.930Z,56.67
2018-04-15T03:28:19.806Z,44.08
2018-04-15T03:28:53.663Z,54.85
2018-04-15T03:29:27.534Z,45.53
2018-04-15T03:30:01.403Z,47.53
2018-04-15T03:30:35.271Z,50.90
2018-04-15T03:31:09.155Z,46.60
2018-04-15T03:31:43.052Z,46.58
2018-04-15T03:32:16.927Z,47.30
2018-04-15T03:32:50.823Z,47.03
2018-04-15T03:33:24.693Z,50.75
2018-04-15T03:33:58.552Z,47.15
2018-04-15T03:34:32.484Z,48.70
2018-04-15T03:35:06.348Z,49.22
2018-04-15T03:35:40.232Z,51.97
2018-04-15T03:36:14.089Z,47.17
2018-04-15T03:36:48.076Z,49.38
2018-04-15T03:37:22.164Z,47.45
2018-04-15T03:37:56.062Z,46.88
2018-04-15T03:38:29.942Z,45.97
2018-04-15T03:39:03.806Z,57.83
2018-04-15T03:39:37.668Z,51.95
2018-04-15T03:40:11.546Z,47.50
2018-04-15T03:40:45.418Z,54.50
2018-04-15T03:41:19.282Z,51.47
2018-04-15T03:41:53.161Z,50.70
2018-04-15T03:42:27.036Z,43.95
2018-04-15T03:43:00.919Z,52.62
2018-04-15T03:43:34.783Z,46.75
2018-04-15T03:44:08.633Z,57.97
2018-04-15T03:44:42.513Z,44.08
2018-04-15T03:45:16.427Z,49.58
2018-04-15T03:45:50.291Z,47.80
2018-04-15T03:46:24.154Z,57.53
2018-04-15T03:46:58.019Z,50.10
2018-04-15T03:47:31.904Z,49.83
2018-04-15T03:48:05.793Z,53.75
2018-04-15T03:48:39.678Z,48.85
2018-04-15T03:49:13.560Z,49.78
2018-04-15T03:49:47.568Z,51.15
2018-04-15T03:50:21.460Z,48.78
2018-04-15T03:50:55.344Z,50.30
2018-04-15T03:51:29.342Z,56.42
2018-04-15T03:52:03.205Z,54.10
2018-04-15T03:52:37.075Z,52.72
2018-04-15T03:53:10.953Z,54.67
2018-04-15T03:53:44.832Z,54.17
2018-04-15T03:54:18.703Z,54.65
2018-04-15T03:54:52.653Z,52.38
2018-04-15T03:55:26.538Z,49.17
2018-04-15T03:56:00.411Z,53.35
2018-04-15T03:56:34.292Z,50.22
2018-04-15T03:57:08.157Z,52.03
2018-04-15T03:57:42.024Z,56.05
2018-04-15T03:58:15.907Z,53.75
2018-04-15T03:58:49.776Z,50.80
2018-04-15T03:59:23.643Z,54.55
2018-04-15T03:59:57.505Z,54.42
2018-04-15T04:00:31.395Z,54.17
2018-04-15T04:01:05.360Z,54.47
2018-04-15T04:01:39.207Z,54.90
2018-04-15T04:02:13.104Z,53.20
2018-04-15T04:02:46.980Z,50.97
2018-04-15T04:03:20.851Z,52.42
2018-04-15T04:03:54.722Z,55.45
2018-04-15T04:04:28.611Z,52.50
2018-04-15T04:05:02.505Z,54.65
2018-04-15T04:05:36.372Z,49.63
2018-04-15T04:06:10.238Z,53.97
2018-04-15T04:06:44.104Z,52.45
2018-04-15T04:07:17.990Z,59.80
2018-04-15T04:07:51.878Z,52.33
2018-04-15T04:08:25.778Z,54.67
2018-04-15T04:08:59.644Z,60.40
2018-04-15T04:09:33.506Z,53.90
2018-04-15T04:10:07.607Z,54.45
2018-04-15T04:10:41.464Z,57.13
2018-04-15T04:11:15.400Z,55.60
2018-04-15T04:11:49.284Z,55.83
2018-04-15T04:12:23.162Z,55.97
2018-04-15T04:12:58.005Z,55.33
2018-04-15T04:13:31.881Z,53.15
2018-04-15T04:14:05.780Z,52.88
2018-04-15T04:14:39.651Z,59.10
2018-04-15T04:15:13.517Z,53.50
2018-04-15T04:15:47.391Z,51.75
2018-04-15T04:16:21.252Z,54.38
2018-04-15T04:16:55.129Z,59.17
2018-04-15T04:17:34.896Z,55.40
2018-04-15T04:18:14.697Z,56.58
2018-04-15T04:18:54.536Z,54.97
2018-04-15T04:19:34.261Z,57.50
2018-04-15T04:20:13.996Z,55.80
2018-04-15T04:20:53.683Z,62.30
2018-04-15T04:21:33.386Z,55.42
2018-04-15T04:22:13.060Z,58.33
2018-04-15T04:22:52.688Z,63.03
2018-04-15T04:23:32.371Z,57.47
2018-04-15T04:24:12.072Z,59.33
2018-04-15T04:24:51.907Z,52.58
2018-04-15T04:25:31.683Z,58.63
2018-04-15T04:26:05.530Z,62.25
2018-04-15T04:26:39.555Z,57.62
2018-04-15T04:27:13.426Z,59.15
2018-04-15T04:27:47.295Z,59.25
2018-04-15T04:28:21.248Z,61.42
2018-04-15T04:28:55.148Z,65.57
2018-04-15T04:29:29.046Z,52.88
2018-04-15T04:30:02.938Z,62.25
2018-04-15T04:30:36.795Z,63.67
2018-04-15T04:31:10.658Z,62.38
2018-04-15T04:31:44.543Z,55.22
2018-04-15T04:32:18.420Z,59.95
2018-04-15T04:32:52.285Z,62.40
2018-04-15T04:33:26.159Z,63.78
2018-04-15T04:34:00.043Z,56.97
2018-04-15T04:34:33.919Z,59.47
2018-04-15T04:35:07.785Z,58.08
2018-04-15T04:35:41.642Z,53.67
2018-04-15T04:36:15.544Z,60.30
2018-04-15T04:36:49.416Z,57.53
2018-04-15T04:37:23.289Z,61.17
2018-04-15T04:37:57.258Z,52.08
2018-04-15T04:38:31.115Z,60.45
2018-04-15T04:39:05.763Z,66.30
2018-04-15T04:39:39.635Z,59.25
2018-04-15T04:40:13.578Z,54.40
2018-04-15T04:40:47.427Z,59.97
2018-04-15T04:41:21.290Z,59.08
2018-04-15T04:41:55.147Z,60.60
2018-04-15T04:42:29.007Z,57.47
2018-04-15T04:43:02.925Z,56.70
2018-04-15T04:43:36.807Z,56.92
2018-04-15T04:44:10.657Z,56.67
2018-04-15T04:44:44.611Z,60.12
2018-04-15T04:45:18.487Z,57.10
2018-04-15T04:45:52.356Z,56.28
2018-04-15T04:46:26.221Z,57.00
2018-04-15T04:47:00.072Z,56.58
2018-04-15T04:47:33.952Z,56.67
2018-04-15T04:48:07.824Z,55.60
2018-04-15T04:48:41.674Z,64.47
2018-04-15T04:49:15.558Z,62.03
2018-04-15T04:49:49.424Z,57.83
2018-04-15T04:50:23.279Z,59.85
2018-04-15T04:50:57.155Z,57.05
2018-04-15T04:51:31.047Z,61.22
2018-04-15T04:52:04.912Z,62.05
2018-04-15T04:52:38.777Z,63.00
2018-04-15T04:53:12.642Z,63.05
2018-04-15T04:53:46.518Z,57.78
2018-04-15T04:54:20.388Z,62.70
2018-04-15T04:54:54.281Z,61.90
2018-04-15T04:55:28.140Z,59.97
2018-04-15T04:56:01.999Z,63.55
2018-04-15T04:56:35.870Z,61.15
2018-04-15T04:57:09.767Z,62.08
2018-04-15T04:57:43.628Z,57.13
2018-04-15T04:58:17.493Z,55.17
2018-04-15T04:58:51.347Z,59.60
2018-04-15T04:59:25.216Z,56.17
2018-04-15T04:59:59.091Z,57.30
2018-04-15T05:00:32.950Z,65.25
2018-04-15T05:01:06.821Z,63.08
2018-04-15T05:01:40.676Z,61.70
2018-04-15T05:02:14.548Z,64.93
2018-04-15T05:02:48.425Z,66.40
2018-04-15T05:03:22.289Z,57.75
2018-04-15T05:03:56.164Z,60.83
2018-04-15T05:04:30.025Z,65.40
2018-04-15T05:05:03.918Z,61.70
2018-04-15T05:05:37.782Z,59.47
2018-04-15T05:06:11.659Z,61.80
2018-04-15T05:06:45.545Z,63.95
2018-04-15T05:07:19.406Z,59.35
2018-04-15T05:07:53.267Z,59.25
2018-04-15T05:08:27.140Z,60.35
2018-04-15T05:09:00.999Z,62.83
2018-04-15T05:09:34.866Z,66.00
2018-04-15T05:10:08.723Z,60.97
2018-04-15T05:10:42.576Z,67.25
2018-04-15T05:11:16.431Z,66.43
2018-04-15T05:11:50.302Z,65.12
2018-04-15T05:12:24.181Z,71.87
2018-04-15T05:12:58.052Z,64.20
2018-04-15T05:13:31.909Z,61.65
2018-04-15T05:14:05.756Z,61.45
2018-04-15T05:14:39.620Z,64.70
2018-04-15T05:15:13.524Z,57.72
2018-04-15T05:15:47.387Z,61.70
2018-04-15T05:16:21.305Z,60.53
2018-04-15T05:16:55.173Z,66.18
2018-04-15T05:17:29.031Z,63.55
2018-04-15T05:18:02.874Z,65.25
2018-04-15T05:18:36.744Z,71.93
2018-04-15T05:19:10.591Z,65.07
2018-04-15T05:19:44.481Z,66.12
2018-04-15T05:20:18.372Z,66.60
2018-04-15T05:20:52.236Z,68.18
2018-04-15T05:21:26.105Z,73.03
2018-04-15T05:21:59.965Z,68.05
2018-04-15T05:22:33.829Z,72.15
2018-04-15T05:23:07.691Z,67.62
2018-04-15T05:23:41.569Z,59.22
2018-04-15T05:24:15.469Z,62.22
2018-04-15T05:24:49.323Z,66.60
2018-04-15T05:25:23.206Z,61.92
2018-04-15T05:25:57.276Z,64.50
2018-04-15T05:26:31.139Z,66.10
2018-04-15T05:27:05.008Z,73.90
2018-04-15T05:27:39.017Z,65.82
2018-04-15T05:28:12.876Z,67.50
2018-04-15T05:28:46.742Z,69.68
2018-04-15T05:29:20.624Z,65.37
2018-04-15T05:29:54.482Z,65.43
2018-04-15T05:30:28.368Z,73.00
2018-04-15T05:31:02.223Z,71.18
2018-04-15T05:31:36.091Z,70.93
2018-04-15T05:32:10.002Z,64.15
2018-04-15T05:32:43.839Z,66.55
2018-04-15T05:33:17.726Z,72.85
2018-04-15T05:33:51.659Z,78.95
2018-04-15T05:34:25.545Z,69.75
2018-04-15T05:34:59.383Z,73.22
2018-04-15T05:35:33.344Z,71.03
2018-04-15T05:36:07.197Z,71.97
2018-04-15T05:36:41.078Z,68.57
2018-04-15T05:37:14.945Z,70.22
2018-04-15T05:37:48.798Z,77.30
2018-04-15T05:38:22.924Z,78.70
2018-04-15T05:38:56.782Z,79.45
2018-04-15T05:39:30.643Z,73.53
2018-04-15T05:40:04.512Z,74.93
2018-04-15T05:40:38.420Z,68.95
2018-04-15T05:41:12.280Z,77.50
2018-04-15T05:41:46.149Z,71.30
2018-04-15T05:42:20.016Z,67.12
2018-04-15T05:42:53.895Z,71.22
2018-04-15T05:43:27.779Z,77.78
2018-04-15T05:44:01.659Z,75.95
2018-04-15T05:44:35.526Z,72.00
2018-04-15T05:45:09.389Z,71.28
2018-04-15T05:45:43.281Z,68.95
2018-04-15T05:46:17.155Z,73.47
2018-04-15T05:46:51.023Z,87.30
2018-04-15T05:47:24.868Z,76.57
2018-04-15T05:47:58.736Z,71.20
2018-04-15T05:48:32.594Z,74.25
2018-04-15T05:49:06.467Z,71.10
2018-04-15T05:49:40.332Z,72.82
2018-04-15T05:50:14.195Z,69.60
2018-04-15T05:50:48.218Z,68.05
2018-04-15T05:51:22.120Z,71.75
2018-04-15T05:51:55.993Z,71.78
2018-04-15T05:52:29.856Z,75.90
2018-04-15T05:53:03.728Z,80.80
2018-04-15T05:53:37.587Z,71.28
2018-04-15T05:54:11.588Z,79.75
2018-04-15T05:54:45.456Z,75.60
2018-04-15T05:55:19.316Z,76.20
2018-04-15T05:55:53.219Z,75.00
2018-04-15T05:56:27.082Z,72.55
2018-04-15T05:57:00.959Z,70.03
2018-04-15T05:57:34.844Z,70.25
2018-04-15T05:58:08.701Z,79.03
2018-04-15T05:58:42.856Z,76.07
2018-04-15T05:59:16.714Z,67.80
2018-04-15T05:59:50.588Z,77.60
2018-04-15T06:00:24.533Z,75.32
2018-04-15T06:00:58.418Z,84.13
2018-04-15T06:01:32.280Z,84.43
2018-04-15T06:02:06.155Z,74.05
2018-04-15T06:02:40.016Z,79.82
2018-04-15T06:03:13.884Z,71.60
2018-04-15T06:03:47.746Z,70.53
2018-04-15T06:04:21.615Z,74.18
2018-04-15T06:04:55.476Z,73.60
2018-04-15T06:05:29.341Z,78.53
2018-04-15T06:06:03.214Z,77.53
2018-04-15T06:06:37.073Z,64.80
2018-04-15T06:07:10.932Z,71.78
2018-04-15T06:07:44.791Z,77.93
2018-04-15T06:08:18.652Z,75.07
2018-04-15T06:08:52.511Z,76.25
2018-04-15T06:09:26.396Z,71.95
2018-04-15T06:10:00.268Z,73.05
2018-04-15T06:10:34.148Z,70.50
2018-04-15T06:11:08.018Z,71.20
2018-04-15T06:11:41.877Z,77.47
2018-04-15T06:12:16.027Z,70.15
2018-04-15T06:12:49.910Z,69.82
2018-04-15T06:13:23.779Z,73.18
2018-04-15T06:13:57.640Z,73.72
2018-04-15T06:14:31.505Z,70.65
2018-04-15T06:15:05.389Z,74.87
2018-04-15T06:15:39.276Z,71.62
2018-04-15T06:16:13.168Z,80.28
2018-04-15T06:16:47.029Z,75.93
2018-04-15T06:17:20.891Z,73.30
2018-04-15T06:17:54.783Z,71.90
2018-04-15T06:18:28.678Z,72.18
2018-04-15T06:19:02.552Z,74.85
2018-04-15T06:19:36.568Z,68.55
2018-04-15T06:20:10.454Z,79.80
2018-04-15T06:20:44.339Z,72.15
2018-04-15T06:21:18.323Z,74.85
2018-04-15T06:21:52.304Z,75.03
2018-04-15T06:22:26.183Z,70.00
2018-04-15T06:23:00.047Z,75.15
2018-04-15T06:23:33.939Z,66.70
2018-04-15T06:24:07.819Z,79.12
2018-04-15T06:24:41.732Z,64.05
2018-04-15T06:25:15.641Z,70.85
2018-04-15T06:25:49.485Z,72.03
2018-04-15T06:26:23.372Z,68.50
2018-04-15T06:26:57.408Z,72.32
2018-04-15T06:27:31.293Z,71.57
2018-04-15T06:28:05.154Z,65.80
2018-04-15T06:28:39.065Z,71.37
2018-04-15T06:29:12.927Z,70.85
2018-04-15T06:29:46.991Z,66.90
2018-04-15T06:30:21.945Z,68.05
2018-04-15T06:30:55.888Z,68.18
2018-04-15T06:31:29.824Z,68.00
2018-04-15T06:32:03.707Z,60.65
2018-04-15T06:32:37.572Z,63.25
2018-04-15T06:33:11.435Z,78.45
2018-04-15T06:33:45.300Z,64.45
2018-04-15T06:34:19.158Z,65.90
2018-04-15T06:34:53.152Z,66.12
2018-04-15T06:35:27.054Z,68.57
2018-04-15T06:36:00.926Z,64.87
2018-04-15T06:36:34.798Z,72.43
2018-04-15T06:37:08.756Z,69.53
2018-04-15T06:37:42.680Z,71.32
2018-04-15T06:38:16.551Z,69.97
2018-04-15T06:38:50.439Z,62.72
2018-04-15T06:39:24.312Z,65.65
2018-04-15T06:39:58.256Z,59.38
2018-04-15T06:40:32.431Z,60.12
2018-04-15T06:41:06.424Z,67.15
2018-04-15T06:41:40.995Z,61.63
2018-04-15T06:42:14.933Z,64.75
2018-04-15T06:42:48.827Z,65.70
2018-04-15T06:43:22.710Z,67.82
2018-04-15T06:43:56.671Z,68.28
2018-04-15T06:44:30.541Z,67.22
2018-04-15T06:45:05.004Z,64.65
2018-04-15T06:45:38.972Z,64.93
2018-04-15T06:46:12.893Z,65.05
2018-04-15T06:46:46.805Z,70.20
2018-04-15T06:47:20.667Z,60.58
2018-04-15T06:47:54.593Z,65.75
2018-04-15T06:48:28.508Z,56.30
2018-04-15T06:49:02.493Z,63.58
2018-04-15T06:49:36.465Z,64.35
2018-04-15T06:50:10.408Z,64.55
2018-04-15T06:50:44.292Z,62.40
2018-04-15T06:51:18.196Z,61.22
2018-04-15T06:51:52.076Z,56.25
2018-04-15T06:52:25.984Z,63.28
2018-04-15T06:52:59.856Z,64.37
2018-04-15T06:53:33.716Z,62.38
2018-04-15T06:54:07.624Z,62.78
2018-04-15T06:54:41.535Z,62.78
2018-04-15T06:55:15.450Z,60.97
2018-04-15T06:55:49.361Z,57.80
2018-04-15T06:56:23.210Z,59.05
2018-04-15T06:56:57.315Z,55.42
2018-04-15T06:57:31.493Z,68.87
2018-04-15T06:58:05.377Z,58.20
2018-04-15T06:58:39.236Z,58.50
2018-04-15T06:59:13.125Z,58.83
2018-04-15T06:59:47.014Z,54.15
2018-04-15T07:00:21.020Z,59.00
2018-04-15T07:00:54.889Z,57.13
2018-04-15T07:01:28.891Z,59.38
2018-04-15T07:02:02.760Z,50.78
2018-04-15T07:02:36.629Z,50.83
2018-04-15T07:03:10.540Z,56.65
2018-04-15T07:03:44.412Z,52.60
2018-04-15T07:04:18.275Z,48.42
2018-04-15T07:04:52.212Z,49.50
2018-04-15T07:05:26.091Z,48.67
2018-04-15T07:05:59.952Z,45.83
2018-04-15T07:06:33.817Z,50.30
2018-04-15T07:07:08.096Z,50.97
2018-04-15T07:07:41.980Z,51.05
2018-04-15T07:08:15.972Z,47.08
2018-04-15T07:08:49.827Z,47.28
2018-04-15T07:09:23.727Z,53.60
2018-04-15T07:09:57.613Z,48.70
2018-04-15T07:10:31.584Z,52.80
2018-04-15T07:11:05.465Z,47.25
2018-04-15T07:11:39.356Z,59.53
2018-04-15T07:12:13.251Z,48.72
2018-04-15T07:12:47.113Z,48.25
2018-04-15T07:13:21.029Z,48.72
2018-04-15T07:13:54.888Z,51.45
2018-04-15T07:14:28.767Z,47.55
2018-04-15T07:15:02.693Z,49.10
2018-04-15T07:15:36.572Z,51.80
2018-04-15T07:16:10.442Z,48.40
2018-04-15T07:16:44.315Z,48.75
2018-04-15T07:17:18.220Z,45.33
2018-04-15T07:17:52.083Z,49.38